sensor_id;sensor_type;location;lat;lon;timestamp;temperature;humidity
2387;DHT22;49473;50.772;8.768;2024-03-02T00:00:37;4.00;99.90
2387;DHT22;49473;50.772;8.768;2024-03-02T00:03:06;4.00;99.90
2387;DHT22;49473;50.772;8.768;2024-03-02T00:05:35;4.00;99.90
2387;DHT22;49473;50.772;8.768;2024-03-02T00:08:05;4.00;99.90
2387;DHT22;49473;50.772;8.768;2024-03-02T00:10:36;4.00;99.90
2387;DHT22;49473;50.772;8.768;2024-03-02T00:13:05;3.90;99.90
2387;DHT22;49473;50.772;8.768;2024-03-02T00:15:40;4.00;99.90
2387;DHT22;49473;50.772;8.768;2024-03-02T00:18:09;4.00;99.90
2387;DHT22;49473;50.772;8.768;2024-03-02T00:20:36;4.00;99.90
2387;DHT22;49473;50.772;8.768;2024-03-02T00:23:06;4.10;99.90
2387;DHT22;49473;50.772;8.768;2024-03-02T00:25:38;4.00;99.90
2387;DHT22;49473;50.772;8.768;2024-03-02T00:28:05;4.10;99.90
2387;DHT22;49473;50.772;8.768;2024-03-02T00:30:52;4.10;99.90
2387;DHT22;49473;50.772;8.768;2024-03-02T00:33:21;4.20;99.90
2387;DHT22;49473;50.772;8.768;2024-03-02T00:35:48;4.20;99.90
2387;DHT22;49473;50.772;8.768;2024-03-02T00:38:16;4.00;99.90
2387;DHT22;49473;50.772;8.768;2024-03-02T00:40:43;4.00;99.90
2387;DHT22;49473;50.772;8.768;2024-03-02T00:46:02;3.80;99.90
2387;DHT22;49473;50.772;8.768;2024-03-02T00:48:30;3.60;99.90
2387;DHT22;49473;50.772;8.768;2024-03-02T00:51:01;3.60;99.90
2387;DHT22;49473;50.772;8.768;2024-03-02T00:53:31;3.50;99.90
2387;DHT22;49473;50.772;8.768;2024-03-02T00:55:59;3.40;99.90
2387;DHT22;49473;50.772;8.768;2024-03-02T00:58:26;3.40;99.90
2387;DHT22;49473;50.772;8.768;2024-03-02T01:00:52;3.40;99.90
2387;DHT22;49473;50.772;8.768;2024-03-02T01:03:19;3.50;99.90
2387;DHT22;49473;50.772;8.768;2024-03-02T01:05:46;3.50;99.90
2387;DHT22;49473;50.772;8.768;2024-03-02T01:08:12;3.50;99.90
2387;DHT22;49473;50.772;8.768;2024-03-02T01:10:40;3.30;99.90
2387;DHT22;49473;50.772;8.768;2024-03-02T01:13:06;3.30;99.90
2387;DHT22;49473;50.772;8.768;2024-03-02T01:15:33;3.10;99.90
2387;DHT22;49473;50.772;8.768;2024-03-02T01:18:00;3.10;99.90
2387;DHT22;49473;50.772;8.768;2024-03-02T01:20:27;3.00;99.90
2387;DHT22;49473;50.772;8.768;2024-03-02T01:22:53;2.90;99.90
2387;DHT22;49473;50.772;8.768;2024-03-02T01:25:20;2.90;99.90
2387;DHT22;49473;50.772;8.768;2024-03-02T01:27:49;2.90;99.90
2387;DHT22;49473;50.772;8.768;2024-03-02T01:30:15;2.90;99.90
2387;DHT22;49473;50.772;8.768;2024-03-02T01:32:42;2.90;99.90
2387;DHT22;49473;50.772;8.768;2024-03-02T01:35:10;2.90;99.90
2387;DHT22;49473;50.772;8.768;2024-03-02T01:37:44;3.00;99.90
2387;DHT22;49473;50.772;8.768;2024-03-02T01:40:11;3.00;99.90
2387;DHT22;49473;50.772;8.768;2024-03-02T01:42:38;3.00;99.90
2387;DHT22;49473;50.772;8.768;2024-03-02T01:45:08;3.00;99.90
2387;DHT22;49473;50.772;8.768;2024-03-02T01:47:35;3.10;99.90
2387;DHT22;49473;50.772;8.768;2024-03-02T01:50:02;3.10;99.90
2387;DHT22;49473;50.772;8.768;2024-03-02T01:52:29;3.10;99.90
2387;DHT22;49473;50.772;8.768;2024-03-02T01:54:55;3.10;99.90
2387;DHT22;49473;50.772;8.768;2024-03-02T01:57:22;3.10;99.90
2387;DHT22;49473;50.772;8.768;2024-03-02T01:59:49;3.10;99.90
2387;DHT22;49473;50.772;8.768;2024-03-02T02:02:18;3.10;99.90
2387;DHT22;49473;50.772;8.768;2024-03-02T02:04:45;3.00;99.90
2387;DHT22;49473;50.772;8.768;2024-03-02T02:07:12;3.00;99.90
2387;DHT22;49473;50.772;8.768;2024-03-02T02:09:40;2.90;99.90
2387;DHT22;49473;50.772;8.768;2024-03-02T02:12:07;2.80;99.90
2387;DHT22;49473;50.772;8.768;2024-03-02T02:14:34;2.70;99.90
2387;DHT22;49473;50.772;8.768;2024-03-02T02:17:00;2.70;99.90
2387;DHT22;49473;50.772;8.768;2024-03-02T02:19:28;2.60;99.90
2387;DHT22;49473;50.772;8.768;2024-03-02T02:21:56;2.50;99.90
2387;DHT22;49473;50.772;8.768;2024-03-02T02:24:23;2.40;99.90
2387;DHT22;49473;50.772;8.768;2024-03-02T02:26:50;2.50;99.90
2387;DHT22;49473;50.772;8.768;2024-03-02T02:29:16;2.50;99.90
2387;DHT22;49473;50.772;8.768;2024-03-02T02:31:43;2.30;99.90
2387;DHT22;49473;50.772;8.768;2024-03-02T02:34:10;2.20;99.90
2387;DHT22;49473;50.772;8.768;2024-03-02T02:36:38;2.20;99.90
2387;DHT22;49473;50.772;8.768;2024-03-02T02:39:09;2.10;99.90
2387;DHT22;49473;50.772;8.768;2024-03-02T02:41:37;2.10;99.90
2387;DHT22;49473;50.772;8.768;2024-03-02T02:44:04;2.00;99.90
2387;DHT22;49473;50.772;8.768;2024-03-02T02:46:31;2.00;99.90
2387;DHT22;49473;50.772;8.768;2024-03-02T02:48:57;2.10;99.90
2387;DHT22;49473;50.772;8.768;2024-03-02T02:51:24;2.00;99.90
2387;DHT22;49473;50.772;8.768;2024-03-02T02:53:51;2.10;99.90
2387;DHT22;49473;50.772;8.768;2024-03-02T02:56:19;2.10;99.90
2387;DHT22;49473;50.772;8.768;2024-03-02T02:58:46;2.20;99.90
2387;DHT22;49473;50.772;8.768;2024-03-02T03:01:13;2.20;99.90
2387;DHT22;49473;50.772;8.768;2024-03-02T03:03:40;2.20;99.90
2387;DHT22;49473;50.772;8.768;2024-03-02T03:06:06;2.20;99.90
2387;DHT22;49473;50.772;8.768;2024-03-02T03:08:33;2.20;99.90
2387;DHT22;49473;50.772;8.768;2024-03-02T03:11:00;2.30;99.90
2387;DHT22;49473;50.772;8.768;2024-03-02T03:13:28;2.20;99.90
2387;DHT22;49473;50.772;8.768;2024-03-02T03:15:55;2.10;99.90
2387;DHT22;49473;50.772;8.768;2024-03-02T03:18:21;2.00;99.90
2387;DHT22;49473;50.772;8.768;2024-03-02T03:20:48;1.90;99.90
2387;DHT22;49473;50.772;8.768;2024-03-02T03:23:15;1.90;99.90
2387;DHT22;49473;50.772;8.768;2024-03-02T03:25:42;1.90;99.90
2387;DHT22;49473;50.772;8.768;2024-03-02T03:28:09;1.80;99.90
2387;DHT22;49473;50.772;8.768;2024-03-02T03:30:37;1.80;99.90
2387;DHT22;49473;50.772;8.768;2024-03-02T03:33:04;1.60;99.90
2387;DHT22;49473;50.772;8.768;2024-03-02T03:35:32;1.50;99.90
2387;DHT22;49473;50.772;8.768;2024-03-02T03:37:58;1.60;99.90
2387;DHT22;49473;50.772;8.768;2024-03-02T03:40:25;1.50;99.90
2387;DHT22;49473;50.772;8.768;2024-03-02T03:42:52;1.40;99.90
2387;DHT22;49473;50.772;8.768;2024-03-02T03:45:19;1.30;99.90
2387;DHT22;49473;50.772;8.768;2024-03-02T03:47:47;1.30;99.90
2387;DHT22;49473;50.772;8.768;2024-03-02T03:50:14;1.30;99.90
2387;DHT22;49473;50.772;8.768;2024-03-02T03:52:41;1.30;99.90
2387;DHT22;49473;50.772;8.768;2024-03-02T03:55:09;1.30;99.90
2387;DHT22;49473;50.772;8.768;2024-03-02T03:57:35;1.20;99.90
2387;DHT22;49473;50.772;8.768;2024-03-02T04:00:03;1.20;99.90
2387;DHT22;49473;50.772;8.768;2024-03-02T04:02:30;1.20;99.90
2387;DHT22;49473;50.772;8.768;2024-03-02T04:04:58;1.20;99.90
2387;DHT22;49473;50.772;8.768;2024-03-02T04:07:24;1.20;99.90
2387;DHT22;49473;50.772;8.768;2024-03-02T04:09:51;1.20;99.90
2387;DHT22;49473;50.772;8.768;2024-03-02T04:12:18;1.10;99.90
2387;DHT22;49473;50.772;8.768;2024-03-02T04:14:44;1.00;99.90
2387;DHT22;49473;50.772;8.768;2024-03-02T04:17:11;1.10;99.90
2387;DHT22;49473;50.772;8.768;2024-03-02T04:19:38;1.00;99.90
2387;DHT22;49473;50.772;8.768;2024-03-02T04:22:06;1.10;99.90
2387;DHT22;49473;50.772;8.768;2024-03-02T04:24:33;1.10;99.90
2387;DHT22;49473;50.772;8.768;2024-03-02T04:27:00;1.10;99.90
2387;DHT22;49473;50.772;8.768;2024-03-02T04:29:27;1.10;99.90
2387;DHT22;49473;50.772;8.768;2024-03-02T04:31:54;1.10;99.90
2387;DHT22;49473;50.772;8.768;2024-03-02T04:34:21;1.10;99.90
2387;DHT22;49473;50.772;8.768;2024-03-02T04:36:48;1.20;99.90
2387;DHT22;49473;50.772;8.768;2024-03-02T04:39:16;1.20;99.90
2387;DHT22;49473;50.772;8.768;2024-03-02T04:41:43;1.20;99.90
2387;DHT22;49473;50.772;8.768;2024-03-02T04:44:10;1.30;99.90
2387;DHT22;49473;50.772;8.768;2024-03-02T04:46:36;1.30;99.90
2387;DHT22;49473;50.772;8.768;2024-03-02T04:49:03;1.30;99.90
2387;DHT22;49473;50.772;8.768;2024-03-02T04:51:30;1.40;99.90
2387;DHT22;49473;50.772;8.768;2024-03-02T04:53:56;1.40;99.90
2387;DHT22;49473;50.772;8.768;2024-03-02T04:56:24;1.40;99.90
2387;DHT22;49473;50.772;8.768;2024-03-02T04:59:06;1.50;99.90
2387;DHT22;49473;50.772;8.768;2024-03-02T05:01:32;1.50;99.90
2387;DHT22;49473;50.772;8.768;2024-03-02T05:04:00;1.50;99.90
2387;DHT22;49473;50.772;8.768;2024-03-02T05:06:26;1.40;99.90
2387;DHT22;49473;50.772;8.768;2024-03-02T05:08:53;1.30;99.90
2387;DHT22;49473;50.772;8.768;2024-03-02T05:11:20;1.30;99.90
2387;DHT22;49473;50.772;8.768;2024-03-02T05:14:17;1.30;99.90
2387;DHT22;49473;50.772;8.768;2024-03-02T05:16:43;1.40;99.90
2387;DHT22;49473;50.772;8.768;2024-03-02T05:19:10;1.40;99.90
2387;DHT22;49473;50.772;8.768;2024-03-02T05:21:37;1.40;99.90
2387;DHT22;49473;50.772;8.768;2024-03-02T05:24:04;1.50;99.90
2387;DHT22;49473;50.772;8.768;2024-03-02T05:26:30;1.50;99.90
2387;DHT22;49473;50.772;8.768;2024-03-02T05:28:57;1.60;99.90
2387;DHT22;49473;50.772;8.768;2024-03-02T05:31:25;1.60;99.90
2387;DHT22;49473;50.772;8.768;2024-03-02T05:33:52;1.60;99.90
2387;DHT22;49473;50.772;8.768;2024-03-02T05:36:19;1.40;99.90
2387;DHT22;49473;50.772;8.768;2024-03-02T05:38:46;1.20;99.90
2387;DHT22;49473;50.772;8.768;2024-03-02T05:41:13;1.20;99.90
2387;DHT22;49473;50.772;8.768;2024-03-02T05:43:39;1.10;99.90
2387;DHT22;49473;50.772;8.768;2024-03-02T05:46:06;1.10;99.90
2387;DHT22;49473;50.772;8.768;2024-03-02T05:48:34;1.10;99.90
2387;DHT22;49473;50.772;8.768;2024-03-02T05:51:01;1.10;99.90
2387;DHT22;49473;50.772;8.768;2024-03-02T05:53:27;1.10;99.90
2387;DHT22;49473;50.772;8.768;2024-03-02T05:55:54;1.10;99.90
2387;DHT22;49473;50.772;8.768;2024-03-02T05:58:21;1.10;99.90
2387;DHT22;49473;50.772;8.768;2024-03-02T06:00:59;1.20;99.90
2387;DHT22;49473;50.772;8.768;2024-03-02T06:03:26;1.10;99.90
2387;DHT22;49473;50.772;8.768;2024-03-02T06:05:55;1.10;99.90
2387;DHT22;49473;50.772;8.768;2024-03-02T06:08:21;1.20;99.90
2387;DHT22;49473;50.772;8.768;2024-03-02T06:10:48;1.20;99.90
2387;DHT22;49473;50.772;8.768;2024-03-02T06:13:15;1.10;99.90
2387;DHT22;49473;50.772;8.768;2024-03-02T06:15:41;1.10;99.90
2387;DHT22;49473;50.772;8.768;2024-03-02T06:18:09;1.10;99.90
2387;DHT22;49473;50.772;8.768;2024-03-02T06:20:35;1.00;99.90
2387;DHT22;49473;50.772;8.768;2024-03-02T06:23:04;1.00;99.90
2387;DHT22;49473;50.772;8.768;2024-03-02T06:25:31;1.00;99.90
2387;DHT22;49473;50.772;8.768;2024-03-02T06:27:57;1.00;99.90
2387;DHT22;49473;50.772;8.768;2024-03-02T06:30:24;1.10;99.90
2387;DHT22;49473;50.772;8.768;2024-03-02T06:32:51;1.20;99.90
2387;DHT22;49473;50.772;8.768;2024-03-02T06:35:17;1.20;99.90
2387;DHT22;49473;50.772;8.768;2024-03-02T06:37:44;1.20;99.90
2387;DHT22;49473;50.772;8.768;2024-03-02T06:40:12;1.20;99.90
2387;DHT22;49473;50.772;8.768;2024-03-02T06:42:39;1.30;99.90
2387;DHT22;49473;50.772;8.768;2024-03-02T06:45:06;1.40;99.90
2387;DHT22;49473;50.772;8.768;2024-03-02T06:47:33;1.50;99.90
2387;DHT22;49473;50.772;8.768;2024-03-02T06:50:00;1.60;99.90
2387;DHT22;49473;50.772;8.768;2024-03-02T06:52:26;1.70;99.90
2387;DHT22;49473;50.772;8.768;2024-03-02T06:54:53;1.80;99.90
2387;DHT22;49473;50.772;8.768;2024-03-02T06:57:21;2.00;99.90
2387;DHT22;49473;50.772;8.768;2024-03-02T06:59:49;2.20;99.90
2387;DHT22;49473;50.772;8.768;2024-03-02T07:02:19;2.20;99.90
2387;DHT22;49473;50.772;8.768;2024-03-02T07:04:47;2.20;99.90
2387;DHT22;49473;50.772;8.768;2024-03-02T07:07:14;2.20;99.90
2387;DHT22;49473;50.772;8.768;2024-03-02T07:09:41;2.40;99.90
2387;DHT22;49473;50.772;8.768;2024-03-02T07:12:07;2.40;99.90
2387;DHT22;49473;50.772;8.768;2024-03-02T07:14:36;2.50;99.90
2387;DHT22;49473;50.772;8.768;2024-03-02T07:17:36;2.40;99.90
2387;DHT22;49473;50.772;8.768;2024-03-02T07:20:04;2.30;99.90
2387;DHT22;49473;50.772;8.768;2024-03-02T07:22:32;2.30;99.90
2387;DHT22;49473;50.772;8.768;2024-03-02T07:24:58;2.20;99.90
2387;DHT22;49473;50.772;8.768;2024-03-02T07:27:25;2.30;99.90
2387;DHT22;49473;50.772;8.768;2024-03-02T07:29:53;2.30;99.90
2387;DHT22;49473;50.772;8.768;2024-03-02T07:32:20;2.50;99.90
2387;DHT22;49473;50.772;8.768;2024-03-02T07:34:46;2.60;99.90
2387;DHT22;49473;50.772;8.768;2024-03-02T07:37:13;2.60;99.90
2387;DHT22;49473;50.772;8.768;2024-03-02T07:39:40;2.60;99.90
2387;DHT22;49473;50.772;8.768;2024-03-02T07:42:07;2.50;99.90
2387;DHT22;49473;50.772;8.768;2024-03-02T07:44:33;2.60;99.90
2387;DHT22;49473;50.772;8.768;2024-03-02T07:47:02;2.70;99.90
2387;DHT22;49473;50.772;8.768;2024-03-02T07:49:28;2.70;99.90
2387;DHT22;49473;50.772;8.768;2024-03-02T07:51:55;2.90;99.90
2387;DHT22;49473;50.772;8.768;2024-03-02T07:54:22;3.10;99.90
2387;DHT22;49473;50.772;8.768;2024-03-02T07:56:48;3.30;99.90
2387;DHT22;49473;50.772;8.768;2024-03-02T07:59:15;3.60;99.90
2387;DHT22;49473;50.772;8.768;2024-03-02T08:01:42;3.90;99.90
2387;DHT22;49473;50.772;8.768;2024-03-02T08:04:10;4.20;99.90
2387;DHT22;49473;50.772;8.768;2024-03-02T08:06:37;4.30;99.90
2387;DHT22;49473;50.772;8.768;2024-03-02T08:09:03;4.40;99.90
2387;DHT22;49473;50.772;8.768;2024-03-02T08:11:35;4.50;99.90
2387;DHT22;49473;50.772;8.768;2024-03-02T08:14:02;4.60;99.90
2387;DHT22;49473;50.772;8.768;2024-03-02T08:16:29;4.80;99.90
2387;DHT22;49473;50.772;8.768;2024-03-02T08:18:56;4.90;99.90
2387;DHT22;49473;50.772;8.768;2024-03-02T08:21:25;4.80;99.90
2387;DHT22;49473;50.772;8.768;2024-03-02T08:23:52;4.90;99.90
2387;DHT22;49473;50.772;8.768;2024-03-02T08:26:18;5.30;99.90
2387;DHT22;49473;50.772;8.768;2024-03-02T08:28:45;5.80;99.90
2387;DHT22;49473;50.772;8.768;2024-03-02T08:31:12;6.00;99.90
2387;DHT22;49473;50.772;8.768;2024-03-02T08:33:39;6.50;99.90
2387;DHT22;49473;50.772;8.768;2024-03-02T08:36:06;7.40;99.90
2387;DHT22;49473;50.772;8.768;2024-03-02T08:38:36;7.90;99.90
2387;DHT22;49473;50.772;8.768;2024-03-02T08:41:03;8.30;99.90
2387;DHT22;49473;50.772;8.768;2024-03-02T08:43:30;8.80;99.90
2387;DHT22;49473;50.772;8.768;2024-03-02T08:45:57;9.30;99.90
2387;DHT22;49473;50.772;8.768;2024-03-02T08:48:24;9.90;99.90
2387;DHT22;49473;50.772;8.768;2024-03-02T08:50:51;10.10;99.90
2387;DHT22;49473;50.772;8.768;2024-03-02T08:53:17;10.30;99.90
2387;DHT22;49473;50.772;8.768;2024-03-02T08:55:46;10.50;99.90
2387;DHT22;49473;50.772;8.768;2024-03-02T08:58:13;10.40;99.90
2387;DHT22;49473;50.772;8.768;2024-03-02T09:00:40;10.50;99.90
2387;DHT22;49473;50.772;8.768;2024-03-02T09:03:07;10.70;99.90
2387;DHT22;49473;50.772;8.768;2024-03-02T09:05:35;11.00;99.90
2387;DHT22;49473;50.772;8.768;2024-03-02T09:08:01;11.90;99.90
2387;DHT22;49473;50.772;8.768;2024-03-02T09:10:29;12.80;99.90
2387;DHT22;49473;50.772;8.768;2024-03-02T09:12:57;12.60;99.90
2387;DHT22;49473;50.772;8.768;2024-03-02T09:15:25;12.20;99.90
2387;DHT22;49473;50.772;8.768;2024-03-02T09:17:52;12.20;99.90
2387;DHT22;49473;50.772;8.768;2024-03-02T09:20:18;11.70;99.90
2387;DHT22;49473;50.772;8.768;2024-03-02T09:22:45;11.50;99.90
2387;DHT22;49473;50.772;8.768;2024-03-02T09:25:13;11.30;99.90
2387;DHT22;49473;50.772;8.768;2024-03-02T09:27:39;11.20;99.90
2387;DHT22;49473;50.772;8.768;2024-03-02T09:30:10;11.10;99.90
2387;DHT22;49473;50.772;8.768;2024-03-02T09:32:37;10.50;99.90
2387;DHT22;49473;50.772;8.768;2024-03-02T09:35:04;10.20;99.90
2387;DHT22;49473;50.772;8.768;2024-03-02T09:37:31;10.10;99.90
2387;DHT22;49473;50.772;8.768;2024-03-02T09:39:58;10.20;99.90
2387;DHT22;49473;50.772;8.768;2024-03-02T09:42:25;10.30;99.90
2387;DHT22;49473;50.772;8.768;2024-03-02T09:44:52;10.80;99.90
2387;DHT22;49473;50.772;8.768;2024-03-02T09:47:20;11.50;99.90
2387;DHT22;49473;50.772;8.768;2024-03-02T09:49:47;12.80;99.90
2387;DHT22;49473;50.772;8.768;2024-03-02T09:52:14;15.00;99.90
2387;DHT22;49473;50.772;8.768;2024-03-02T09:54:41;16.80;99.90
2387;DHT22;49473;50.772;8.768;2024-03-02T09:57:09;18.30;99.90
2387;DHT22;49473;50.772;8.768;2024-03-02T09:59:36;18.70;99.90
2387;DHT22;49473;50.772;8.768;2024-03-02T10:02:03;17.90;99.90
2387;DHT22;49473;50.772;8.768;2024-03-02T10:04:34;17.00;99.90
2387;DHT22;49473;50.772;8.768;2024-03-02T10:07:14;16.50;99.90
2387;DHT22;49473;50.772;8.768;2024-03-02T10:09:42;15.60;99.90
2387;DHT22;49473;50.772;8.768;2024-03-02T10:12:11;15.30;99.90
2387;DHT22;49473;50.772;8.768;2024-03-02T10:14:38;15.90;99.90
2387;DHT22;49473;50.772;8.768;2024-03-02T10:17:06;16.50;99.90
2387;DHT22;49473;50.772;8.768;2024-03-02T10:19:34;15.90;99.90
2387;DHT22;49473;50.772;8.768;2024-03-02T10:22:03;15.40;99.90
2387;DHT22;49473;50.772;8.768;2024-03-02T10:24:36;15.30;99.90
2387;DHT22;49473;50.772;8.768;2024-03-02T10:27:08;15.50;99.90
2387;DHT22;49473;50.772;8.768;2024-03-02T10:29:39;15.10;99.90
2387;DHT22;49473;50.772;8.768;2024-03-02T10:32:09;14.80;99.90
2387;DHT22;49473;50.772;8.768;2024-03-02T10:34:39;14.90;99.90
2387;DHT22;49473;50.772;8.768;2024-03-02T10:37:07;14.60;99.90
2387;DHT22;49473;50.772;8.768;2024-03-02T10:39:34;14.80;99.90
2387;DHT22;49473;50.772;8.768;2024-03-02T10:42:03;15.10;99.90
2387;DHT22;49473;50.772;8.768;2024-03-02T10:44:30;15.40;99.90
2387;DHT22;49473;50.772;8.768;2024-03-02T10:47:00;14.40;99.90
2387;DHT22;49473;50.772;8.768;2024-03-02T10:49:29;14.40;99.90
2387;DHT22;49473;50.772;8.768;2024-03-02T10:51:57;14.40;99.90
2387;DHT22;49473;50.772;8.768;2024-03-02T10:54:24;14.40;99.90
2387;DHT22;49473;50.772;8.768;2024-03-02T10:56:55;14.30;99.90
2387;DHT22;49473;50.772;8.768;2024-03-02T10:59:27;14.50;99.90
2387;DHT22;49473;50.772;8.768;2024-03-02T11:01:57;15.10;99.90
2387;DHT22;49473;50.772;8.768;2024-03-02T11:04:25;15.60;99.90
2387;DHT22;49473;50.772;8.768;2024-03-02T11:06:56;16.70;99.90
2387;DHT22;49473;50.772;8.768;2024-03-02T11:09:28;17.00;99.90
2387;DHT22;49473;50.772;8.768;2024-03-02T11:12:02;16.20;99.90
2387;DHT22;49473;50.772;8.768;2024-03-02T11:14:30;16.10;99.90
2387;DHT22;49473;50.772;8.768;2024-03-02T11:16:59;15.80;99.90
2387;DHT22;49473;50.772;8.768;2024-03-02T11:19:27;15.60;99.90
2387;DHT22;49473;50.772;8.768;2024-03-02T11:21:55;15.40;99.90
2387;DHT22;49473;50.772;8.768;2024-03-02T11:24:33;15.30;99.90
2387;DHT22;49473;50.772;8.768;2024-03-02T11:27:01;15.40;99.90
2387;DHT22;49473;50.772;8.768;2024-03-02T11:29:43;15.20;99.90
2387;DHT22;49473;50.772;8.768;2024-03-02T11:32:18;15.20;99.90
2387;DHT22;49473;50.772;8.768;2024-03-02T11:34:48;15.00;99.90
2387;DHT22;49473;50.772;8.768;2024-03-02T11:37:15;15.00;99.90
2387;DHT22;49473;50.772;8.768;2024-03-02T11:39:45;15.20;99.90
2387;DHT22;49473;50.772;8.768;2024-03-02T11:42:13;15.30;99.90
2387;DHT22;49473;50.772;8.768;2024-03-02T11:44:43;16.20;99.90
2387;DHT22;49473;50.772;8.768;2024-03-02T11:47:12;16.60;99.90
2387;DHT22;49473;50.772;8.768;2024-03-02T11:49:41;16.90;99.90
2387;DHT22;49473;50.772;8.768;2024-03-02T11:52:09;16.90;99.90
2387;DHT22;49473;50.772;8.768;2024-03-02T11:54:37;17.00;99.90
2387;DHT22;49473;50.772;8.768;2024-03-02T11:57:07;17.30;99.90
2387;DHT22;49473;50.772;8.768;2024-03-02T11:59:34;17.90;99.90
2387;DHT22;49473;50.772;8.768;2024-03-02T12:02:01;18.20;99.90
2387;DHT22;49473;50.772;8.768;2024-03-02T12:04:29;18.40;99.90
2387;DHT22;49473;50.772;8.768;2024-03-02T12:06:58;18.40;99.90
2387;DHT22;49473;50.772;8.768;2024-03-02T12:09:26;18.30;99.90
2387;DHT22;49473;50.772;8.768;2024-03-02T12:12:04;18.70;99.90
2387;DHT22;49473;50.772;8.768;2024-03-02T12:14:32;18.60;99.90
2387;DHT22;49473;50.772;8.768;2024-03-02T12:17:00;18.80;99.90
2387;DHT22;49473;50.772;8.768;2024-03-02T12:19:27;19.20;99.90
2387;DHT22;49473;50.772;8.768;2024-03-02T12:21:55;19.30;99.20
2387;DHT22;49473;50.772;8.768;2024-03-02T12:24:23;18.60;99.20
2387;DHT22;49473;50.772;8.768;2024-03-02T12:26:50;18.30;98.60
2387;DHT22;49473;50.772;8.768;2024-03-02T12:29:18;17.60;99.10
2387;DHT22;49473;50.772;8.768;2024-03-02T12:31:48;17.00;99.90
2387;DHT22;49473;50.772;8.768;2024-03-02T12:34:16;16.90;99.90
2387;DHT22;49473;50.772;8.768;2024-03-02T12:36:44;17.20;99.90
2387;DHT22;49473;50.772;8.768;2024-03-02T12:39:13;17.60;99.90
2387;DHT22;49473;50.772;8.768;2024-03-02T12:41:40;17.80;99.90
2387;DHT22;49473;50.772;8.768;2024-03-02T12:44:07;17.70;99.60
2387;DHT22;49473;50.772;8.768;2024-03-02T12:46:34;18.00;99.90
2387;DHT22;49473;50.772;8.768;2024-03-02T12:49:08;18.10;98.00
2387;DHT22;49473;50.772;8.768;2024-03-02T12:51:37;17.30;98.80
2387;DHT22;49473;50.772;8.768;2024-03-02T12:54:06;17.20;99.80
2387;DHT22;49473;50.772;8.768;2024-03-02T12:56:33;17.00;99.90
2387;DHT22;49473;50.772;8.768;2024-03-02T12:58:59;17.20;99.90
2387;DHT22;49473;50.772;8.768;2024-03-02T13:01:26;17.10;99.90
2387;DHT22;49473;50.772;8.768;2024-03-02T13:03:53;16.30;99.90
2387;DHT22;49473;50.772;8.768;2024-03-02T13:06:23;15.80;99.90
2387;DHT22;49473;50.772;8.768;2024-03-02T13:08:52;16.10;99.90
2387;DHT22;49473;50.772;8.768;2024-03-02T13:11:21;16.30;99.90
2387;DHT22;49473;50.772;8.768;2024-03-02T13:13:48;17.70;99.90
2387;DHT22;49473;50.772;8.768;2024-03-02T13:16:15;20.20;99.40
2387;DHT22;49473;50.772;8.768;2024-03-02T13:18:44;21.10;95.50
2387;DHT22;49473;50.772;8.768;2024-03-02T13:21:11;20.90;92.50
2387;DHT22;49473;50.772;8.768;2024-03-02T13:23:39;20.00;93.00
2387;DHT22;49473;50.772;8.768;2024-03-02T13:26:06;19.00;93.40
2387;DHT22;49473;50.772;8.768;2024-03-02T13:28:33;18.70;94.30
2387;DHT22;49473;50.772;8.768;2024-03-02T13:31:00;17.30;94.70
2387;DHT22;49473;50.772;8.768;2024-03-02T13:33:26;16.90;96.90
2387;DHT22;49473;50.772;8.768;2024-03-02T13:35:53;16.10;96.80
2387;DHT22;49473;50.772;8.768;2024-03-02T13:38:20;16.10;98.20
2387;DHT22;49473;50.772;8.768;2024-03-02T13:40:49;15.90;97.80
2387;DHT22;49473;50.772;8.768;2024-03-02T13:43:17;15.60;97.80
2387;DHT22;49473;50.772;8.768;2024-03-02T13:45:45;15.10;98.70
2387;DHT22;49473;50.772;8.768;2024-03-02T13:48:12;14.90;99.80
2387;DHT22;49473;50.772;8.768;2024-03-02T13:50:40;14.90;99.90
2387;DHT22;49473;50.772;8.768;2024-03-02T13:53:07;15.00;99.90
2387;DHT22;49473;50.772;8.768;2024-03-02T13:55:34;14.80;99.90
2387;DHT22;49473;50.772;8.768;2024-03-02T13:58:02;14.70;99.90
2387;DHT22;49473;50.772;8.768;2024-03-02T14:00:29;14.60;99.50
2387;DHT22;49473;50.772;8.768;2024-03-02T14:02:56;14.40;99.90
2387;DHT22;49473;50.772;8.768;2024-03-02T14:05:23;14.20;99.90
2387;DHT22;49473;50.772;8.768;2024-03-02T14:07:49;14.00;99.90
2387;DHT22;49473;50.772;8.768;2024-03-02T14:10:17;13.90;99.90
2387;DHT22;49473;50.772;8.768;2024-03-02T14:12:47;14.00;99.90
2387;DHT22;49473;50.772;8.768;2024-03-02T14:15:15;13.80;99.90
2387;DHT22;49473;50.772;8.768;2024-03-02T14:17:42;13.80;99.90
2387;DHT22;49473;50.772;8.768;2024-03-02T14:20:10;13.90;99.90
2387;DHT22;49473;50.772;8.768;2024-03-02T14:22:37;13.90;99.90
2387;DHT22;49473;50.772;8.768;2024-03-02T14:25:04;14.10;99.90
2387;DHT22;49473;50.772;8.768;2024-03-02T14:27:31;14.30;99.90
2387;DHT22;49473;50.772;8.768;2024-03-02T14:29:59;14.30;99.90
2387;DHT22;49473;50.772;8.768;2024-03-02T14:32:27;14.20;99.90
2387;DHT22;49473;50.772;8.768;2024-03-02T14:34:54;14.10;99.90
2387;DHT22;49473;50.772;8.768;2024-03-02T14:37:21;13.80;99.90
2387;DHT22;49473;50.772;8.768;2024-03-02T14:39:48;13.70;99.90
2387;DHT22;49473;50.772;8.768;2024-03-02T14:42:15;13.70;99.90
2387;DHT22;49473;50.772;8.768;2024-03-02T14:44:42;13.70;99.90
2387;DHT22;49473;50.772;8.768;2024-03-02T14:47:09;13.80;99.90
2387;DHT22;49473;50.772;8.768;2024-03-02T14:49:37;13.90;99.90
2387;DHT22;49473;50.772;8.768;2024-03-02T14:52:06;14.00;99.90
2387;DHT22;49473;50.772;8.768;2024-03-02T14:54:32;14.00;99.90
2387;DHT22;49473;50.772;8.768;2024-03-02T14:57:00;14.10;99.90
2387;DHT22;49473;50.772;8.768;2024-03-02T14:59:28;14.00;99.90
2387;DHT22;49473;50.772;8.768;2024-03-02T15:01:55;13.90;99.90
2387;DHT22;49473;50.772;8.768;2024-03-02T15:04:22;14.00;99.90
2387;DHT22;49473;50.772;8.768;2024-03-02T15:06:50;14.10;99.90
2387;DHT22;49473;50.772;8.768;2024-03-02T15:09:17;14.10;99.90
2387;DHT22;49473;50.772;8.768;2024-03-02T15:11:45;14.00;99.90
2387;DHT22;49473;50.772;8.768;2024-03-02T15:14:12;13.90;99.90
2387;DHT22;49473;50.772;8.768;2024-03-02T15:16:39;13.90;99.90
2387;DHT22;49473;50.772;8.768;2024-03-02T15:19:09;13.80;99.90
2387;DHT22;49473;50.772;8.768;2024-03-02T15:21:35;13.80;99.90
2387;DHT22;49473;50.772;8.768;2024-03-02T15:24:04;13.80;99.90
2387;DHT22;49473;50.772;8.768;2024-03-02T15:26:31;13.80;99.90
2387;DHT22;49473;50.772;8.768;2024-03-02T15:28:58;13.80;99.90
2387;DHT22;49473;50.772;8.768;2024-03-02T15:31:24;13.90;99.90
2387;DHT22;49473;50.772;8.768;2024-03-02T15:33:52;13.90;99.90
2387;DHT22;49473;50.772;8.768;2024-03-02T15:36:21;14.00;99.90
2387;DHT22;49473;50.772;8.768;2024-03-02T15:38:47;14.20;99.90
2387;DHT22;49473;50.772;8.768;2024-03-02T15:41:16;14.20;99.90
2387;DHT22;49473;50.772;8.768;2024-03-02T15:43:42;14.10;99.90
2387;DHT22;49473;50.772;8.768;2024-03-02T15:46:09;14.10;99.90
2387;DHT22;49473;50.772;8.768;2024-03-02T15:48:36;14.00;99.90
2387;DHT22;49473;50.772;8.768;2024-03-02T15:51:03;13.80;99.90
2387;DHT22;49473;50.772;8.768;2024-03-02T15:53:30;13.70;99.90
2387;DHT22;49473;50.772;8.768;2024-03-02T15:55:57;13.70;99.90
2387;DHT22;49473;50.772;8.768;2024-03-02T15:58:26;13.80;99.90
2387;DHT22;49473;50.772;8.768;2024-03-02T16:00:52;13.80;99.90